Time;durP1;ratioP1;P1;durP2;ratioP2;P2;SDS_P1;SDS_P2;PMS_P1;PMS_P2;Temp;Humidity;BMP_temperature;BMP_pressure;BME280_temperature;BME280_humidity;BME280_pressure;Samples;Min_cycle;Max_cycle;Signal;HPM_P1;HPM_P2
2023/02/08 00:00:44;;;;;;;20.07;16.53;;;-0.70;99.90;;;;;;5048516;28;20496;-75
2023/02/08 00:03:17;;;;;;;19.93;17.20;;;-0.70;99.90;;;;;;5049644;28;20566;-76
2023/02/08 00:05:49;;;;;;;21.83;17.30;;;-0.70;99.90;;;;;;5064823;28;20470;-76
2023/02/08 00:08:17;;;;;;;23.00;17.63;;;-0.70;99.90;;;;;;5064961;28;20493;-76
2023/02/08 00:10:51;;;;;;;20.10;17.03;;;-0.70;99.90;;;;;;5067588;28;20493;-76
2023/02/08 00:13:23;;;;;;;24.47;17.10;;;-0.70;99.90;;;;;;5051896;28;20473;-76
2023/02/08 00:15:53;;;;;;;21.50;17.40;;;-0.70;99.90;;;;;;5056710;28;20531;-75
2023/02/08 00:18:25;;;;;;;23.60;18.70;;;-0.70;99.90;;;;;;5058683;28;20717;-76
2023/02/08 00:20:56;;;;;;;21.30;17.43;;;-0.70;99.90;;;;;;5062875;28;20519;-76
2023/02/08 00:23:30;;;;;;;21.17;16.80;;;-0.70;99.90;;;;;;5067143;28;20552;-76
2023/02/08 00:26:05;;;;;;;21.43;16.33;;;-0.70;99.90;;;;;;5062356;28;20474;-76
2023/02/08 00:28:35;;;;;;;23.90;17.90;;;-0.70;99.90;;;;;;5064589;28;20545;-76
2023/02/08 00:31:06;;;;;;;19.97;16.53;;;-0.70;99.90;;;;;;5062450;28;20497;-77
2023/02/08 00:33:36;;;;;;;21.83;17.27;;;-0.70;99.90;;;;;;5066212;28;20467;-78
2023/02/08 00:36:09;;;;;;;22.57;17.57;;;-0.70;99.90;;;;;;5069781;28;20474;-75
2023/02/08 00:38:43;;;;;;;22.50;18.37;;;-0.70;99.90;;;;;;5068681;28;21113;-76
2023/02/08 00:41:16;;;;;;;22.80;17.50;;;-0.70;99.90;;;;;;5067213;28;20511;-76
2023/02/08 00:43:55;;;;;;;22.20;17.60;;;-0.70;99.90;;;;;;5058833;28;20539;-76
2023/02/08 00:46:25;;;;;;;24.23;17.90;;;-0.80;99.90;;;;;;5063630;28;20473;-76
2023/02/08 00:48:53;;;;;;;22.20;16.20;;;-0.80;99.90;;;;;;5060508;28;20489;-77
2023/02/08 00:51:23;;;;;;;22.80;18.23;;;-0.80;99.90;;;;;;5046682;28;21093;-77
2023/02/08 00:53:52;;;;;;;22.63;17.47;;;-0.80;99.90;;;;;;5052061;28;20590;-76
2023/02/08 00:56:20;;;;;;;23.53;17.80;;;-0.80;99.90;;;;;;5049604;28;20474;-75
2023/02/08 00:58:49;;;;;;;22.30;17.53;;;-0.80;99.90;;;;;;5057498;28;20485;-77
2023/02/08 01:01:23;;;;;;;22.77;17.53;;;-0.80;99.90;;;;;;5043209;28;20484;-75
2023/02/08 01:03:58;;;;;;;23.30;17.43;;;-0.90;99.90;;;;;;5051473;28;20470;-76
2023/02/08 01:06:39;;;;;;;21.13;17.47;;;-0.90;99.90;;;;;;5068802;28;20480;-76
2023/02/08 01:09:10;;;;;;;22.23;17.07;;;-0.90;99.90;;;;;;5053476;28;20501;-77
2023/02/08 01:11:56;;;;;;;24.10;17.67;;;-0.90;99.90;;;;;;5051386;28;20531;-77
2023/02/08 01:14:29;;;;;;;21.47;17.40;;;-0.90;99.90;;;;;;5047102;28;21454;-76
2023/02/08 01:17:01;;;;;;;22.80;17.80;;;-0.90;99.90;;;;;;5052453;28;20469;-75
2023/02/08 01:19:30;;;;;;;23.40;17.40;;;-1.00;99.90;;;;;;5060724;28;20486;-76
2023/02/08 01:21:58;;;;;;;21.80;16.90;;;-1.00;99.90;;;;;;5044960;28;20485;-76
2023/02/08 01:24:30;;;;;;;24.33;17.83;;;-1.00;99.90;;;;;;5047359;28;20472;-75
2023/02/08 01:27:08;;;;;;;;;;;;;;;;;;;;;
2023/02/08 01:29:48;;;;;;;21.30;17.50;;;-1.10;99.90;;;;;;5055015;28;20496;-75
2023/02/08 01:32:17;;;;;;;23.93;18.50;;;-1.10;99.90;;;;;;5064283;28;21077;-75
2023/02/08 01:34:52;;;;;;;22.00;18.73;;;-1.10;99.90;;;;;;5071256;28;20542;-76
2023/02/08 01:37:21;;;;;;;20.30;16.90;;;-1.10;99.90;;;;;;5059231;28;20469;-78
2023/02/08 01:39:52;;;;;;;23.90;18.60;;;-1.10;99.90;;;;;;5069607;28;20485;-79
2023/02/08 01:42:20;;;;;;;22.83;17.33;;;-1.10;99.90;;;;;;5063396;28;20489;-78
2023/02/08 01:45:27;;;;;;;23.30;18.57;;;-1.10;99.90;;;;;;5048407;28;20469;-76
2023/02/08 01:48:04;;;;;;;23.73;18.13;;;-1.10;99.90;;;;;;5054291;28;20477;-76
2023/02/08 01:50:46;;;;;;;24.17;18.47;;;-1.10;99.90;;;;;;5059026;28;20501;-76
2023/02/08 01:53:16;;;;;;;24.10;18.53;;;-1.10;99.90;;;;;;5067017;28;20484;-76
2023/02/08 01:55:49;;;;;;;25.57;18.53;;;-1.10;99.90;;;;;;5065982;28;20499;-81
2023/02/08 01:58:19;;;;;;;22.97;18.50;;;-1.10;99.90;;;;;;5066142;28;20477;-75
2023/02/08 02:00:51;;;;;;;19.97;17.10;;;-1.10;99.90;;;;;;5048458;28;20494;-75
2023/02/08 02:03:25;;;;;;;22.07;18.20;;;-1.10;99.90;;;;;;5058222;28;20488;-77
2023/02/08 02:06:08;;;;;;;24.13;18.30;;;-1.20;99.90;;;;;;5058085;28;20473;-76
2023/02/08 02:08:36;;;;;;;26.83;18.33;;;-1.20;99.90;;;;;;5062407;28;20484;-76
2023/02/08 02:11:07;;;;;;;24.57;17.60;;;-1.20;99.90;;;;;;5070210;28;20473;-76
2023/02/08 02:13:40;;;;;;;22.97;18.70;;;-1.20;99.90;;;;;;5058745;28;20828;-76
2023/02/08 02:16:12;;;;;;;22.57;18.20;;;-1.20;99.90;;;;;;5063675;28;20464;-75
2023/02/08 02:18:49;;;;;;;21.83;18.40;;;-1.20;99.90;;;;;;5049459;28;20468;-76
2023/02/08 02:21:35;;;;;;;24.63;19.00;;;-1.30;99.90;;;;;;5042387;28;21160;-75
2023/02/08 02:24:34;;;;;;;25.80;19.03;;;-1.30;99.90;;;;;;5046232;28;20473;-77
2023/02/08 02:27:26;;;;;;;26.33;18.90;;;-1.30;99.90;;;;;;5063555;28;20474;-75
2023/02/08 02:30:37;;;;;;;23.93;17.00;;;-1.30;99.90;;;;;;5044834;28;20526;-76
2023/02/08 02:33:47;;;;;;;23.90;17.60;;;-1.30;99.90;;;;;;4979243;28;20873;-77
2023/02/08 02:36:30;;;;;;;22.53;18.03;;;-1.30;99.90;;;;;;5055947;28;20477;-76
2023/02/08 02:39:17;;;;;;;23.20;17.77;;;-1.30;99.90;;;;;;5056649;28;20489;-75
2023/02/08 02:44:58;;;;;;;23.87;18.70;;;-1.30;99.90;;;;;;5061178;28;21262;-76
2023/02/08 02:47:38;;;;;;;26.83;18.53;;;-1.30;99.90;;;;;;5045497;28;20469;-76
2023/02/08 02:50:23;;;;;;;24.43;18.77;;;-1.30;99.90;;;;;;5051762;28;20501;-75
2023/02/08 02:52:59;;;;;;;26.93;19.17;;;-1.30;99.90;;;;;;5065750;28;20500;-75
2023/02/08 02:55:29;;;;;;;27.73;18.80;;;-1.30;99.90;;;;;;5057434;28;20888;-76
2023/02/08 02:58:01;;;;;;;26.13;19.80;;;-1.30;99.90;;;;;;5065161;28;20464;-75
2023/02/08 03:00:38;;;;;;;25.67;18.97;;;-1.30;99.90;;;;;;5061114;28;20496;-76
2023/02/08 03:03:06;;;;;;;26.23;19.27;;;-1.30;99.90;;;;;;5064228;28;20903;-75
2023/02/08 03:05:43;;;;;;;25.37;19.93;;;-1.20;99.90;;;;;;5064516;28;20469;-76
2023/02/08 03:08:38;;;;;;;27.03;19.20;;;-1.30;99.90;;;;;;5065147;28;20470;-76
2023/02/08 03:11:17;;;;;;;23.57;18.80;;;-1.20;99.90;;;;;;5071041;28;20468;-76
2023/02/08 03:14:02;;;;;;;26.40;20.00;;;-1.30;99.90;;;;;;5043481;28;20534;-76
2023/02/08 03:16:39;;;;;;;26.67;19.20;;;-1.30;99.90;;;;;;5044287;28;20582;-76
2023/02/08 03:19:15;;;;;;;23.37;18.80;;;-1.30;99.90;;;;;;5057394;28;20489;-76
2023/02/08 03:21:52;;;;;;;24.67;19.00;;;-1.30;99.90;;;;;;5043745;28;20500;-76
2023/02/08 03:24:27;;;;;;;25.80;18.80;;;-1.30;99.90;;;;;;5064740;28;20477;-76
2023/02/08 03:27:01;;;;;;;25.27;19.83;;;-1.30;99.90;;;;;;5064064;28;20473;-76
2023/02/08 03:29:40;;;;;;;28.70;20.27;;;-1.30;99.90;;;;;;5062243;28;21198;-76
2023/02/08 03:32:17;;;;;;;27.73;18.83;;;-1.30;99.90;;;;;;5037883;28;20496;-77
2023/02/08 03:34:53;;;;;;;23.17;18.47;;;-1.40;99.90;;;;;;5052044;28;20473;-77
2023/02/08 03:37:32;;;;;;;30.20;20.47;;;-1.40;99.90;;;;;;5054048;28;20512;-75
2023/02/08 03:40:12;;;;;;;23.97;19.13;;;-1.40;99.90;;;;;;5050837;28;20493;-76
2023/02/08 03:42:42;;;;;;;26.60;19.00;;;-1.40;99.90;;;;;;5059735;28;20477;-75
2023/02/08 03:45:15;;;;;;;25.37;19.40;;;-1.40;99.90;;;;;;5062443;28;20521;-75
2023/02/08 03:47:45;;;;;;;26.43;19.23;;;-1.40;99.90;;;;;;5061362;28;20479;-75
2023/02/08 03:50:20;;;;;;;25.30;19.53;;;-1.50;99.90;;;;;;5085436;22;21062;-70
2023/02/08 03:52:55;;;;;;;27.90;19.73;;;-1.40;99.90;;;;;;5040147;28;20482;-71
2023/02/08 03:55:31;;;;;;;25.97;19.33;;;-1.50;99.90;;;;;;5043726;28;21054;-70
2023/02/08 03:58:08;;;;;;;28.33;20.63;;;-1.40;99.90;;;;;;5039192;28;20458;-71
2023/02/08 04:00:50;;;;;;;29.10;20.07;;;-1.50;99.90;;;;;;5036167;28;23399;-71
2023/02/08 04:03:22;;;;;;;26.80;19.87;;;-1.50;99.90;;;;;;5036665;28;20490;-71
2023/02/08 04:05:53;;;;;;;27.00;19.43;;;-1.50;99.90;;;;;;5052532;28;20469;-71
2023/02/08 04:08:25;;;;;;;26.17;19.20;;;-1.50;99.90;;;;;;5044798;28;20467;-71
2023/02/08 04:10:53;;;;;;;26.60;19.93;;;-1.50;99.90;;;;;;5038015;28;20502;-71
2023/02/08 04:13:24;;;;;;;28.23;19.90;;;-1.50;99.90;;;;;;5042186;28;20486;-70
2023/02/08 04:15:53;;;;;;;25.73;18.83;;;-1.50;99.90;;;;;;5047387;28;20528;-71
2023/02/08 04:18:23;;;;;;;27.10;20.33;;;-1.50;99.90;;;;;;5045929;28;20512;-71
2023/02/08 04:20:54;;;;;;;28.60;20.47;;;-1.50;99.90;;;;;;5042974;28;20487;-71
2023/02/08 04:23:31;;;;;;;28.27;20.77;;;-1.50;99.90;;;;;;5040872;28;20539;-71
2023/02/08 04:26:02;;;;;;;28.40;21.07;;;-1.50;99.90;;;;;;5041527;28;21149;-71
2023/02/08 04:28:30;;;;;;;26.13;20.50;;;-1.50;99.90;;;;;;5036885;28;20462;-71
2023/02/08 04:30:59;;;;;;;28.40;19.90;;;-1.50;99.90;;;;;;5035766;28;20498;-71
2023/02/08 04:33:27;;;;;;;26.60;20.20;;;-1.60;99.90;;;;;;5036795;28;20505;-71
2023/02/08 04:35:57;;;;;;;27.80;20.63;;;-1.60;99.90;;;;;;5052879;28;20954;-71
2023/02/08 04:38:30;;;;;;;30.73;21.17;;;-1.60;99.90;;;;;;5060943;28;20474;-70
2023/02/08 04:41:01;;;;;;;28.53;21.90;;;-1.60;99.90;;;;;;5060889;28;20538;-70
2023/02/08 04:43:35;;;;;;;26.10;19.70;;;-1.60;99.90;;;;;;5052872;28;20458;-71
2023/02/08 04:46:04;;;;;;;29.03;20.87;;;-1.60;99.90;;;;;;5041452;28;20505;-71
2023/02/08 04:48:35;;;;;;;32.63;20.40;;;-1.60;99.90;;;;;;5045506;28;20524;-71
2023/02/08 04:51:03;;;;;;;29.30;20.73;;;-1.60;99.90;;;;;;5039666;28;20862;-71
2023/02/08 04:53:37;;;;;;;28.40;19.70;;;-1.60;99.90;;;;;;5036598;28;20566;-71
2023/02/08 04:56:10;;;;;;;26.20;19.80;;;-1.60;99.90;;;;;;5033835;28;20935;-70
2023/02/08 04:58:42;;;;;;;28.33;19.50;;;-1.70;99.90;;;;;;5035078;28;20476;-70
2023/02/08 05:01:16;;;;;;;29.53;21.00;;;-1.70;99.90;;;;;;5031256;28;20479;-71
2023/02/08 05:03:46;;;;;;;25.00;19.40;;;-1.70;99.90;;;;;;5036759;28;20922;-70
2023/02/08 05:06:16;;;;;;;30.70;22.17;;;-1.70;99.90;;;;;;5016733;28;20486;-70
2023/02/08 05:08:49;;;;;;;28.67;21.70;;;-1.70;99.90;;;;;;5015922;28;20477;-70
2023/02/08 05:11:26;;;;;;;27.70;20.40;;;-1.70;99.90;;;;;;5023326;28;20608;-70
2023/02/08 05:13:54;;;;;;;32.17;21.23;;;-1.70;99.90;;;;;;5023850;28;20543;-70
2023/02/08 05:16:22;;;;;;;30.00;21.07;;;-1.70;99.90;;;;;;5033945;28;20466;-71
2023/02/08 05:18:55;;;;;;;27.70;20.63;;;-1.70;99.90;;;;;;5031635;28;20494;-71
2023/02/08 05:21:37;;;;;;;30.83;22.33;;;-1.70;99.90;;;;;;5018580;28;20544;-71
2023/02/08 05:24:11;;;;;;;32.53;21.77;;;-1.70;99.90;;;;;;5024592;28;21050;-70
2023/02/08 05:26:39;;;;;;;30.60;21.63;;;-1.70;99.90;;;;;;5023107;28;20508;-71
2023/02/08 05:29:20;;;;;;;30.03;21.37;;;-1.70;99.90;;;;;;5034341;28;20476;-71
2023/02/08 05:31:50;;;;;;;30.87;21.37;;;-1.70;99.90;;;;;;5021838;28;21617;-71
2023/02/08 05:34:18;;;;;;;30.07;21.30;;;-1.70;99.90;;;;;;5040843;28;20468;-71
2023/02/08 05:36:46;;;;;;;30.03;21.67;;;-1.70;99.90;;;;;;5038803;28;20996;-70
2023/02/08 05:39:21;;;;;;;30.80;21.00;;;-1.80;99.90;;;;;;5027641;28;20479;-71
2023/02/08 05:41:49;;;;;;;31.60;22.47;;;-1.80;99.90;;;;;;5027844;28;20497;-71
2023/02/08 05:44:19;;;;;;;31.20;21.73;;;-1.70;99.90;;;;;;5033377;28;20739;-71
2023/02/08 05:46:49;;;;;;;30.10;21.97;;;-1.80;99.90;;;;;;5019740;28;20470;-70
2023/02/08 05:49:26;;;;;;;31.27;20.20;;;-1.80;99.90;;;;;;5026403;28;20470;-70
2023/02/08 05:51:56;;;;;;;30.37;21.83;;;-1.80;99.90;;;;;;5031128;28;20490;-70
2023/02/08 05:54:27;;;;;;;34.20;21.80;;;-1.80;99.90;;;;;;5029924;28;20488;-71
2023/02/08 05:56:56;;;;;;;33.07;21.60;;;-1.70;99.90;;;;;;5029951;28;20477;-71
2023/02/08 05:59:24;;;;;;;33.57;22.47;;;-1.70;99.90;;;;;;5046522;28;20479;-72
2023/02/08 06:01:52;;;;;;;33.73;23.00;;;-1.70;99.90;;;;;;5037363;28;20498;-71
2023/02/08 06:04:20;;;;;;;34.10;22.27;;;-1.80;99.90;;;;;;5041860;28;20470;-71
2023/02/08 06:06:50;;;;;;;33.27;21.70;;;-1.70;99.90;;;;;;5047808;28;20802;-71
2023/02/08 06:09:26;;;;;;;29.30;21.60;;;-1.70;99.90;;;;;;5039222;28;20970;-71
2023/02/08 06:12:04;;;;;;;28.73;21.60;;;-1.70;99.90;;;;;;5029316;28;21389;-71
2023/02/08 06:14:37;;;;;;;33.10;22.80;;;-1.70;99.90;;;;;;5031904;28;20565;-71
2023/02/08 06:17:09;;;;;;;35.60;23.60;;;-1.80;99.90;;;;;;5033828;28;20473;-71
2023/02/08 06:19:40;;;;;;;35.70;23.33;;;-1.80;99.90;;;;;;5036975;28;20473;-71
2023/02/08 06:22:11;;;;;;;34.40;23.60;;;-1.70;99.90;;;;;;5029724;28;20498;-71
2023/02/08 06:24:39;;;;;;;36.57;23.23;;;-1.70;99.90;;;;;;5031455;28;20977;-71
2023/02/08 06:27:13;;;;;;;34.87;23.70;;;-1.80;99.90;;;;;;5026668;28;20482;-71
2023/02/08 06:29:45;;;;;;;32.93;22.43;;;-1.80;99.90;;;;;;5042579;28;20497;-71
2023/02/08 06:32:14;;;;;;;32.33;22.63;;;-1.80;99.90;;;;;;5029124;28;24568;-71
2023/02/08 06:34:42;;;;;;;35.97;22.73;;;-1.80;99.90;;;;;;5029311;28;20504;-71
2023/02/08 06:37:17;;;;;;;37.63;23.13;;;-1.80;99.90;;;;;;5030724;28;20482;-72
2023/02/08 06:39:45;;;;;;;37.00;23.90;;;-1.80;99.90;;;;;;5040637;28;20473;-72
2023/02/08 06:42:16;;;;;;;33.70;22.70;;;-1.80;99.90;;;;;;5030090;28;22314;-71
2023/02/08 06:44:48;;;;;;;34.83;23.73;;;-1.80;99.90;;;;;;5029595;28;21013;-71
2023/02/08 06:47:26;;;;;;;37.83;24.10;;;-1.80;99.90;;;;;;5027242;28;20463;-71
2023/02/08 06:49:56;;;;;;;34.20;22.37;;;-1.80;99.90;;;;;;5026830;28;20466;-71
2023/02/08 06:52:24;;;;;;;31.30;21.80;;;-1.80;99.90;;;;;;5025633;28;20506;-71
2023/02/08 06:54:55;;;;;;;33.10;21.83;;;-1.90;99.90;;;;;;5028938;28;20482;-72
2023/02/08 06:57:26;;;;;;;34.27;23.43;;;-1.90;99.90;;;;;;5039401;28;20474;-72
2023/02/08 06:59:58;;;;;;;35.60;23.57;;;-1.90;99.90;;;;;;5023987;28;20482;-71
2023/02/08 07:02:29;;;;;;;33.97;23.37;;;-1.90;99.90;;;;;;5030078;28;20552;-71
2023/02/08 07:04:59;;;;;;;39.30;23.00;;;-1.90;99.90;;;;;;5024837;28;22272;-71
2023/02/08 07:07:29;;;;;;;36.43;23.70;;;-1.90;99.90;;;;;;5040300;28;20470;-72
2023/02/08 07:10:00;;;;;;;34.57;22.47;;;-1.90;99.90;;;;;;5034648;28;20470;-72
2023/02/08 07:12:29;;;;;;;38.67;22.90;;;-1.90;99.90;;;;;;5031881;28;20490;-71
2023/02/08 07:14:57;;;;;;;36.50;23.93;;;-1.90;99.90;;;;;;5039412;28;20966;-72
2023/02/08 07:17:25;;;;;;;33.07;21.67;;;-1.90;99.90;;;;;;5022018;28;21085;-71
2023/02/08 07:19:56;;;;;;;35.20;23.40;;;-1.90;99.90;;;;;;5022308;28;20478;-72
2023/02/08 07:22:28;;;;;;;37.63;23.00;;;-1.90;99.90;;;;;;5016676;28;20518;-71
2023/02/08 07:24:56;;;;;;;38.73;22.90;;;-1.90;99.90;;;;;;5033184;28;21007;-72
2023/02/08 07:27:34;;;;;;;39.67;23.57;;;-1.90;99.90;;;;;;5032034;28;20551;-72
2023/02/08 07:30:07;;;;;;;33.87;23.17;;;-1.80;99.90;;;;;;5040383;28;20478;-71
2023/02/08 07:32:40;;;;;;;36.77;23.93;;;-1.80;99.90;;;;;;5033092;28;20482;-71
2023/02/08 10:01:12;;;;;;;33.67;21.17;;;0.20;99.90;;;;;;5025980;28;20465;-73
2023/02/08 10:03:44;;;;;;;29.70;20.27;;;0.30;99.90;;;;;;5029653;28;20466;-73
2023/02/08 10:06:16;;;;;;;34.83;22.47;;;0.30;99.90;;;;;;5042350;28;20502;-73
2023/02/08 10:08:47;;;;;;;33.00;21.83;;;0.40;99.90;;;;;;5045589;28;20978;-74
2023/02/08 10:11:39;;;;;;;33.23;19.93;;;0.50;99.90;;;;;;5021325;28;20501;-73
2023/02/08 10:14:36;;;;;;;34.70;22.10;;;0.60;99.90;;;;;;5030971;28;21024;-74
2023/02/08 10:17:19;;;;;;;33.00;22.00;;;0.70;99.90;;;;;;5028604;28;20481;-73
2023/02/08 10:20:02;;;;;;;33.57;21.33;;;0.80;99.90;;;;;;5039608;28;20481;-75
2023/02/08 10:22:39;;;;;;;32.10;21.80;;;0.80;99.90;;;;;;5025123;28;20474;-72
2023/02/08 10:25:35;;;;;;;31.10;20.37;;;0.90;99.90;;;;;;5035867;28;20478;-73
2023/02/08 10:28:22;;;;;;;32.47;22.10;;;1.00;99.90;;;;;;5024688;28;20569;-71
2023/02/08 10:30:57;;;;;;;33.40;22.33;;;1.20;99.90;;;;;;5030038;28;20632;-73
2023/02/08 10:33:32;;;;;;;31.13;21.27;;;1.30;99.90;;;;;;5028743;28;20489;-73
2023/02/08 10:36:12;;;;;;;34.00;21.83;;;1.40;99.90;;;;;;5029538;28;21008;-73
2023/02/08 10:38:47;;;;;;;36.70;22.00;;;1.50;99.90;;;;;;5034080;28;20473;-73
2023/02/08 10:41:32;;;;;;;30.47;21.40;;;1.60;99.90;;;;;;5027679;28;20841;-72
2023/02/08 10:44:14;;;;;;;30.00;20.43;;;1.70;99.90;;;;;;5026640;28;20478;-72
2023/02/08 10:46:47;;;;;;;31.07;21.20;;;1.80;99.90;;;;;;5025342;28;20467;-72
2023/02/08 10:49:23;;;;;;;32.13;22.30;;;1.90;99.90;;;;;;5033215;28;20462;-71
2023/02/08 10:51:59;;;;;;;34.27;22.20;;;1.90;99.90;;;;;;5026424;28;20581;-72
2023/02/08 10:54:30;;;;;;;32.53;21.43;;;2.00;99.90;;;;;;5023449;28;21007;-72
2023/02/08 10:57:04;;;;;;;34.10;21.20;;;2.10;99.90;;;;;;5027556;28;20527;-73
2023/02/08 10:59:48;;;;;;;32.80;22.00;;;2.10;99.90;;;;;;5021335;28;20482;-72
2023/02/08 11:02:31;;;;;;;30.43;22.13;;;2.20;99.90;;;;;;5032456;28;20490;-73
2023/02/08 11:05:11;;;;;;;34.30;22.80;;;2.30;99.90;;;;;;5023928;28;21029;-71
2023/02/08 11:07:39;;;;;;;33.53;23.30;;;2.40;99.90;;;;;;5035722;28;21051;-72
2023/02/08 11:10:23;;;;;;;33.67;22.30;;;2.40;99.90;;;;;;5037932;28;20458;-72
2023/02/08 11:13:00;;;;;;;32.53;21.77;;;2.50;99.90;;;;;;5023659;28;20527;-71
2023/02/08 11:15:51;;;;;;;34.90;23.63;;;2.60;99.90;;;;;;5036507;28;20462;-72
2023/02/08 11:18:23;;;;;;;30.07;21.60;;;2.70;99.90;;;;;;5024151;28;20979;-71
2023/02/08 11:20:56;;;;;;;29.13;19.80;;;2.70;99.90;;;;;;5039896;28;20630;-74
2023/02/08 11:23:30;;;;;;;33.27;22.07;;;2.80;99.90;;;;;;5028483;28;20486;-73
2023/02/08 11:26:16;;;;;;;27.80;20.80;;;2.90;99.90;;;;;;5028885;28;20463;-73
2023/02/08 11:28:59;;;;;;;30.83;21.50;;;3.00;99.90;;;;;;5033177;28;20481;-71
2023/02/08 11:31:34;;;;;;;36.10;22.40;;;3.10;99.90;;;;;;5020000;28;20490;-75
2023/02/08 11:34:10;;;;;;;29.53;21.20;;;3.20;99.90;;;;;;5023064;28;20496;-75
2023/02/08 11:36:50;;;;;;;33.23;22.60;;;3.40;99.90;;;;;;5035291;28;20478;-75
2023/02/08 11:39:27;;;;;;;31.47;23.10;;;3.50;99.90;;;;;;5040894;28;20524;-75
2023/02/08 11:41:59;;;;;;;29.30;21.10;;;3.60;99.90;;;;;;5020448;28;20698;-74
2023/02/08 11:44:32;;;;;;;30.70;21.70;;;3.70;99.90;;;;;;5031284;28;20853;-74
2023/02/08 11:47:15;;;;;;;28.87;21.17;;;3.90;99.90;;;;;;5022221;28;20482;-75
2023/02/08 11:49:57;;;;;;;32.50;21.87;;;4.00;99.90;;;;;;5028633;28;21013;-76
2023/02/08 11:52:30;;;;;;;29.33;19.93;;;4.20;99.90;;;;;;5030326;28;21168;-75
2023/02/08 11:55:22;;;;;;;29.97;20.00;;;4.50;99.90;;;;;;5024803;28;21007;-75
2023/02/08 11:58:03;;;;;;;27.67;20.43;;;5.00;99.90;;;;;;5028563;28;20496;-76
2023/02/08 12:00:36;;;;;;;29.00;22.13;;;5.80;99.90;;;;;;5019120;28;20484;-72
2023/02/08 12:33:58;;;;;;;19.83;18.20;;;29.80;23.80;;;;;;5028797;28;20992;-75
2023/02/08 12:36:46;;;;;;;21.03;19.43;;;30.00;22.40;;;;;;5031759;28;20892;-77
2023/02/08 12:42:48;;;;;;;20.03;18.50;;;29.80;21.90;;;;;;5041931;28;20488;-75
2023/02/08 12:45:38;;;;;;;20.50;18.90;;;29.60;21.60;;;;;;5035484;28;20853;-76
2023/02/08 12:48:19;;;;;;;19.87;18.20;;;29.70;21.60;;;;;;5044663;28;20492;-76
2023/02/08 12:50:59;;;;;;;20.43;18.80;;;29.80;21.40;;;;;;5042902;28;20504;-75
2023/02/08 12:53:33;;;;;;;20.50;18.70;;;29.80;21.90;;;;;;5040935;28;20477;-76
2023/02/08 12:56:11;;;;;;;21.00;19.20;;;30.20;20.80;;;;;;5038044;28;20500;-74
2023/02/08 12:58:49;;;;;;;21.30;19.80;;;29.80;20.70;;;;;;5045392;28;20209;-75
2023/02/08 13:01:42;;;;;;;18.88;17.48;;;29.70;20.50;;;;;;5037858;28;20238;-76
2023/02/08 13:04:15;;;;;;;19.30;17.80;;;29.50;20.70;;;;;;5043551;28;20322;-75
2023/02/08 13:06:51;;;;;;;19.25;17.75;;;29.40;20.20;;;;;;5040812;28;20215;-76
2023/02/08 13:09:37;;;;;;;19.15;17.65;;;28.80;20.40;;;;;;5038420;28;20214;-75
2023/02/08 13:12:14;;;;;;;19.45;17.75;;;28.40;20.20;;;;;;5029891;28;20648;-76
2023/02/08 13:14:55;;;;;;;18.77;17.27;;;28.20;19.80;;;;;;5031904;28;20265;-75
2023/02/08 13:17:41;;;;;;;19.07;17.63;;;27.90;20.20;;;;;;5031721;28;20687;-76
2023/02/08 13:20:29;;;;;;;19.10;17.50;;;27.60;20.20;;;;;;5041853;28;21182;-74
2023/02/08 13:23:03;;;;;;;18.80;17.13;;;27.10;20.40;;;;;;5040187;28;20486;-76
2023/02/08 13:25:38;;;;;;;17.90;16.53;;;26.80;20.70;;;;;;5036160;28;20553;-75
2023/02/08 13:28:21;;;;;;;16.70;15.20;;;26.40;21.70;;;;;;5035997;28;20560;-75
2023/02/08 13:30:56;;;;;;;17.53;16.17;;;25.70;21.20;;;;;;5033199;28;21191;-76
2023/02/08 13:33:34;;;;;;;16.97;15.40;;;25.20;21.90;;;;;;5033803;28;20473;-75
2023/02/08 13:36:04;;;;;;;17.57;15.90;;;25.20;21.60;;;;;;5036577;28;20473;-75
2023/02/08 13:38:43;;;;;;;17.27;15.80;;;25.20;21.20;;;;;;5033082;28;20470;-75
2023/02/08 13:41:25;;;;;;;16.13;14.83;;;25.00;20.90;;;;;;5042352;28;20492;-75
2023/02/08 13:44:01;;;;;;;16.17;14.80;;;24.50;20.70;;;;;;5040115;28;20491;-74
2023/02/08 13:46:38;;;;;;;15.50;14.23;;;24.60;20.80;;;;;;5031360;28;20984;-75
2023/02/08 13:49:45;;;;;;;16.63;15.23;;;24.20;21.10;;;;;;5041970;28;20470;-76
2023/02/08 13:52:49;;;;;;;16.27;14.87;;;24.00;20.60;;;;;;5038812;28;20557;-74
2023/02/08 13:56:04;;;;;;;16.90;15.30;;;23.80;21.60;;;;;;5035896;28;21013;-76
2023/02/08 13:59:03;;;;;;;16.57;15.17;;;22.30;21.60;;;;;;5045753;28;20479;-75
2023/02/08 14:01:36;;;;;;;15.90;14.40;;;21.10;22.20;;;;;;5031416;28;20493;-75
2023/02/08 14:04:37;;;;;;;16.73;14.93;;;19.70;23.20;;;;;;5042420;28;20498;-76
2023/02/08 14:07:28;;;;;;;15.27;13.77;;;17.90;23.50;;;;;;5042953;28;20471;-76
2023/02/08 14:10:18;;;;;;;16.33;14.23;;;16.60;24.40;;;;;;5041371;28;20477;-76
2023/02/08 14:13:03;;;;;;;17.03;13.90;;;15.70;25.60;;;;;;5042988;28;20490;-75
2023/02/08 14:15:39;;;;;;;15.97;14.10;;;15.00;26.10;;;;;;5020696;28;20477;-75
2023/02/08 14:18:26;;;;;;;14.40;12.97;;;14.00;26.50;;;;;;5024930;28;20474;-75
2023/02/08 14:21:03;;;;;;;14.90;13.40;;;13.10;27.10;;;;;;5024552;28;22052;-74
2023/02/08 14:23:41;;;;;;;15.87;13.73;;;12.50;28.10;;;;;;5030110;28;20611;-75
2023/02/08 14:26:22;;;;;;;15.17;13.20;;;11.80;28.60;;;;;;5039170;28;20477;-74
2023/02/08 14:28:57;;;;;;;15.77;13.70;;;11.30;29.30;;;;;;5029775;28;20536;-74
2023/02/08 14:31:40;;;;;;;15.50;12.80;;;10.80;30.20;;;;;;5028725;28;20490;-75
2023/02/08 14:34:22;;;;;;;18.23;13.43;;;10.50;30.30;;;;;;5030082;28;20501;-75
2023/02/08 14:37:00;;;;;;;14.20;11.70;;;10.10;30.90;;;;;;5026473;28;20805;-73
2023/02/08 14:39:37;;;;;;;14.80;12.40;;;10.00;31.80;;;;;;5031419;28;20470;-73
2023/02/08 14:42:13;;;;;;;14.17;11.90;;;10.30;32.40;;;;;;5042628;28;21053;-73
2023/02/08 14:44:57;;;;;;;14.60;11.27;;;10.60;32.60;;;;;;5045636;28;20490;-74
2023/02/08 17:13:46;;;;;;;19.27;14.97;;;4.00;99.90;;;;;;5018407;28;20477;-74
2023/02/08 17:16:18;;;;;;;19.47;15.70;;;4.00;99.90;;;;;;5026395;28;20478;-74
2023/02/08 17:18:53;;;;;;;19.57;15.10;;;3.90;99.90;;;;;;5037191;28;20524;-74
2023/02/08 17:21:28;;;;;;;25.23;16.37;;;3.90;99.90;;;;;;5039821;28;20599;-75
2023/02/08 17:24:03;;;;;;;19.77;14.57;;;3.80;99.90;;;;;;5043432;28;20536;-73
2023/02/08 17:26:39;;;;;;;22.07;15.70;;;3.80;99.90;;;;;;5048481;28;20854;-73
2023/02/08 17:29:16;;;;;;;18.57;14.60;;;3.70;99.90;;;;;;5042505;28;20875;-73
2023/02/08 17:31:49;;;;;;;20.40;15.80;;;3.60;99.90;;;;;;5038768;28;20489;-72
2023/02/08 17:34:29;;;;;;;21.20;15.70;;;3.60;99.90;;;;;;5050701;28;20482;-73
2023/02/08 17:37:01;;;;;;;19.93;15.60;;;3.60;99.90;;;;;;5044386;28;21003;-73
2023/02/08 17:39:35;;;;;;;19.77;15.07;;;3.50;99.90;;;;;;5045197;28;20492;-72
2023/02/08 17:42:07;;;;;;;19.30;14.17;;;3.50;99.90;;;;;;5044976;28;20490;-73
2023/02/08 17:44:40;;;;;;;22.53;16.57;;;3.40;99.90;;;;;;5033581;28;20466;-72
2023/02/08 17:47:18;;;;;;;20.43;15.57;;;3.40;99.90;;;;;;5041733;28;20477;-73
2023/02/08 17:49:50;;;;;;;21.03;15.27;;;3.40;99.90;;;;;;5042265;28;20480;-72
2023/02/08 17:52:27;;;;;;;23.20;16.30;;;3.30;99.90;;;;;;5035003;28;20489;-72
2023/02/08 17:54:58;;;;;;;23.03;16.40;;;3.20;99.90;;;;;;5031127;28;20585;-75
2023/02/08 17:57:29;;;;;;;26.07;17.03;;;3.20;99.90;;;;;;5041489;28;20475;-74
2023/02/08 18:00:00;;;;;;;21.50;15.57;;;3.20;99.90;;;;;;5041712;28;20481;-74
2023/02/08 18:02:32;;;;;;;22.17;15.93;;;3.10;99.90;;;;;;5040787;28;20494;-74
2023/02/08 18:05:02;;;;;;;22.17;16.63;;;3.10;99.90;;;;;;5042037;28;20467;-73
2023/02/08 18:07:38;;;;;;;23.60;16.13;;;3.00;99.90;;;;;;5046576;28;20507;-74
2023/02/08 18:10:10;;;;;;;22.80;17.70;;;3.00;99.90;;;;;;5037733;28;20476;-72
2023/02/08 18:12:43;;;;;;;24.47;18.53;;;2.90;99.90;;;;;;5035308;28;20491;-73
2023/02/08 18:15:22;;;;;;;26.47;18.67;;;2.90;99.90;;;;;;5040957;28;20874;-74
2023/02/08 18:17:53;;;;;;;28.60;20.00;;;2.80;99.90;;;;;;5032093;28;20465;-72
2023/02/08 18:20:24;;;;;;;26.57;18.87;;;2.80;99.90;;;;;;5046031;28;20466;-72
2023/02/08 18:22:56;;;;;;;30.70;19.87;;;2.70;99.90;;;;;;5030810;28;20482;-72
2023/02/08 18:25:32;;;;;;;28.73;19.90;;;2.70;99.90;;;;;;5024498;28;20474;-72
2023/02/08 18:28:00;;;;;;;26.40;21.17;;;2.70;99.90;;;;;;5036470;28;20828;-71
2023/02/08 18:30:34;;;;;;;33.37;24.33;;;2.60;99.90;;;;;;5041127;28;20501;-73
2023/02/08 18:33:09;;;;;;;28.00;20.83;;;2.60;99.90;;;;;;5031111;28;21025;-72
2023/02/08 18:35:39;;;;;;;30.47;20.83;;;2.60;99.90;;;;;;5030248;28;20521;-72
2023/02/08 18:38:11;;;;;;;28.67;20.60;;;2.60;99.90;;;;;;5044371;28;20466;-74
2023/02/08 18:40:41;;;;;;;30.10;22.00;;;2.50;99.90;;;;;;5039932;28;20489;-74
2023/02/08 18:43:11;;;;;;;31.27;21.13;;;2.40;99.90;;;;;;5039038;28;20482;-73